sensor_id;sensor_type;location;lat;lon;timestamp;P1;durP1;ratioP1;P2;durP2;ratioP2
4323;SDS011;2175;51.018;6.994;2023-08-06T00:01:54;9.83;;;6.10;;
4323;SDS011;2175;51.018;6.994;2023-08-06T00:04:20;7.80;;;5.33;;
4323;SDS011;2175;51.018;6.994;2023-08-06T00:06:45;6.83;;;5.37;;
4323;SDS011;2175;51.018;6.994;2023-08-06T00:09:11;5.83;;;4.37;;
4323;SDS011;2175;51.018;6.994;2023-08-06T00:11:36;5.10;;;4.17;;
4323;SDS011;2175;51.018;6.994;2023-08-06T00:14:02;9.37;;;5.10;;
4323;SDS011;2175;51.018;6.994;2023-08-06T00:16:27;8.10;;;5.10;;
4323;SDS011;2175;51.018;6.994;2023-08-06T00:18:53;6.67;;;5.10;;
4323;SDS011;2175;51.018;6.994;2023-08-06T00:21:18;7.40;;;5.07;;
4323;SDS011;2175;51.018;6.994;2023-08-06T00:23:44;6.77;;;4.53;;
4323;SDS011;2175;51.018;6.994;2023-08-06T00:26:09;11.03;;;5.00;;
4323;SDS011;2175;51.018;6.994;2023-08-06T00:28:35;12.73;;;5.30;;
4323;SDS011;2175;51.018;6.994;2023-08-06T00:31:01;6.97;;;5.20;;
4323;SDS011;2175;51.018;6.994;2023-08-06T00:33:26;5.43;;;4.40;;
4323;SDS011;2175;51.018;6.994;2023-08-06T00:35:52;8.57;;;4.40;;
4323;SDS011;2175;51.018;6.994;2023-08-06T00:38:17;6.10;;;4.63;;
4323;SDS011;2175;51.018;6.994;2023-08-06T00:40:43;7.97;;;5.30;;
4323;SDS011;2175;51.018;6.994;2023-08-06T00:43:08;6.53;;;4.53;;
4323;SDS011;2175;51.018;6.994;2023-08-06T00:45:35;9.90;;;4.73;;
4323;SDS011;2175;51.018;6.994;2023-08-06T00:48:02;6.27;;;4.97;;
4323;SDS011;2175;51.018;6.994;2023-08-06T00:50:30;8.20;;;5.50;;
4323;SDS011;2175;51.018;6.994;2023-08-06T00:52:55;11.00;;;5.27;;
4323;SDS011;2175;51.018;6.994;2023-08-06T00:55:21;6.33;;;4.83;;
4323;SDS011;2175;51.018;6.994;2023-08-06T00:57:47;7.07;;;5.07;;
4323;SDS011;2175;51.018;6.994;2023-08-06T01:00:13;6.27;;;5.07;;
4323;SDS011;2175;51.018;6.994;2023-08-06T01:02:38;12.00;;;4.77;;
4323;SDS011;2175;51.018;6.994;2023-08-06T01:05:04;6.60;;;5.40;;
4323;SDS011;2175;51.018;6.994;2023-08-06T01:15:43;8.93;;;6.07;;
4323;SDS011;2175;51.018;6.994;2023-08-06T01:18:15;10.93;;;4.90;;
4323;SDS011;2175;51.018;6.994;2023-08-06T01:20:41;8.80;;;5.27;;
4323;SDS011;2175;51.018;6.994;2023-08-06T01:23:06;17.90;;;5.40;;
4323;SDS011;2175;51.018;6.994;2023-08-06T01:25:37;10.37;;;5.30;;
4323;SDS011;2175;51.018;6.994;2023-08-06T01:28:15;7.93;;;5.93;;
4323;SDS011;2175;51.018;6.994;2023-08-06T01:30:47;7.97;;;5.27;;
4323;SDS011;2175;51.018;6.994;2023-08-06T01:33:16;9.30;;;5.60;;
4323;SDS011;2175;51.018;6.994;2023-08-06T01:35:46;9.77;;;5.27;;
4323;SDS011;2175;51.018;6.994;2023-08-06T01:38:14;10.20;;;5.50;;
4323;SDS011;2175;51.018;6.994;2023-08-06T01:40:40;9.13;;;5.60;;
4323;SDS011;2175;51.018;6.994;2023-08-06T01:43:06;6.63;;;4.87;;
4323;SDS011;2175;51.018;6.994;2023-08-06T01:45:31;7.87;;;5.60;;
4323;SDS011;2175;51.018;6.994;2023-08-06T01:47:57;9.57;;;5.67;;
4323;SDS011;2175;51.018;6.994;2023-08-06T01:50:22;8.30;;;5.97;;
4323;SDS011;2175;51.018;6.994;2023-08-06T01:52:48;6.57;;;5.33;;
4323;SDS011;2175;51.018;6.994;2023-08-06T01:55:14;10.73;;;5.43;;
4323;SDS011;2175;51.018;6.994;2023-08-06T01:57:39;12.43;;;4.90;;
4323;SDS011;2175;51.018;6.994;2023-08-06T02:00:05;8.37;;;5.07;;
4323;SDS011;2175;51.018;6.994;2023-08-06T02:02:31;7.80;;;5.80;;
4323;SDS011;2175;51.018;6.994;2023-08-06T02:04:58;8.60;;;4.97;;
4323;SDS011;2175;51.018;6.994;2023-08-06T02:07:24;7.83;;;5.07;;
4323;SDS011;2175;51.018;6.994;2023-08-06T02:09:49;10.50;;;5.33;;
4323;SDS011;2175;51.018;6.994;2023-08-06T02:12:15;8.73;;;4.93;;
4323;SDS011;2175;51.018;6.994;2023-08-06T02:14:41;8.00;;;5.17;;
4323;SDS011;2175;51.018;6.994;2023-08-06T02:17:06;7.27;;;5.03;;
4323;SDS011;2175;51.018;6.994;2023-08-06T02:19:32;9.90;;;5.37;;
4323;SDS011;2175;51.018;6.994;2023-08-06T02:21:57;7.80;;;4.80;;
4323;SDS011;2175;51.018;6.994;2023-08-06T02:24:23;7.93;;;4.90;;
4323;SDS011;2175;51.018;6.994;2023-08-06T02:26:48;7.80;;;4.97;;
4323;SDS011;2175;51.018;6.994;2023-08-06T02:29:16;7.60;;;4.40;;
4323;SDS011;2175;51.018;6.994;2023-08-06T02:31:42;6.07;;;4.70;;
4323;SDS011;2175;51.018;6.994;2023-08-06T02:34:07;9.00;;;5.20;;
4323;SDS011;2175;51.018;6.994;2023-08-06T02:36:33;6.27;;;4.70;;
4323;SDS011;2175;51.018;6.994;2023-08-06T02:38:58;7.10;;;5.20;;
4323;SDS011;2175;51.018;6.994;2023-08-06T02:41:24;9.80;;;5.13;;
4323;SDS011;2175;51.018;6.994;2023-08-06T02:43:50;8.53;;;4.87;;
4323;SDS011;2175;51.018;6.994;2023-08-06T02:46:15;9.73;;;5.53;;
4323;SDS011;2175;51.018;6.994;2023-08-06T02:48:41;5.30;;;4.80;;
4323;SDS011;2175;51.018;6.994;2023-08-06T02:51:06;9.03;;;4.60;;
4323;SDS011;2175;51.018;6.994;2023-08-06T02:53:32;5.50;;;4.70;;
4323;SDS011;2175;51.018;6.994;2023-08-06T02:55:57;5.60;;;4.37;;
4323;SDS011;2175;51.018;6.994;2023-08-06T02:58:23;8.73;;;4.63;;
4323;SDS011;2175;51.018;6.994;2023-08-06T03:01:05;5.90;;;5.00;;
4323;SDS011;2175;51.018;6.994;2023-08-06T03:03:32;5.60;;;4.73;;
4323;SDS011;2175;51.018;6.994;2023-08-06T03:05:58;7.40;;;5.00;;
4323;SDS011;2175;51.018;6.994;2023-08-06T03:08:24;5.10;;;4.60;;
4323;SDS011;2175;51.018;6.994;2023-08-06T03:10:50;6.27;;;4.50;;
4323;SDS011;2175;51.018;6.994;2023-08-06T03:13:17;7.73;;;4.70;;
4323;SDS011;2175;51.018;6.994;2023-08-06T03:15:43;7.57;;;4.63;;
4323;SDS011;2175;51.018;6.994;2023-08-06T03:18:19;6.53;;;4.40;;
4323;SDS011;2175;51.018;6.994;2023-08-06T03:20:45;6.50;;;4.73;;
4323;SDS011;2175;51.018;6.994;2023-08-06T03:23:10;6.53;;;4.93;;
4323;SDS011;2175;51.018;6.994;2023-08-06T03:25:36;8.07;;;5.17;;
4323;SDS011;2175;51.018;6.994;2023-08-06T03:28:02;7.33;;;4.47;;
4323;SDS011;2175;51.018;6.994;2023-08-06T03:30:27;6.20;;;4.33;;
4323;SDS011;2175;51.018;6.994;2023-08-06T03:32:53;8.00;;;4.50;;
4323;SDS011;2175;51.018;6.994;2023-08-06T03:35:18;8.73;;;4.10;;
4323;SDS011;2175;51.018;6.994;2023-08-06T03:37:44;6.07;;;4.10;;
4323;SDS011;2175;51.018;6.994;2023-08-06T03:40:10;5.67;;;4.40;;
4323;SDS011;2175;51.018;6.994;2023-08-06T03:42:35;8.63;;;4.07;;
4323;SDS011;2175;51.018;6.994;2023-08-06T03:45:01;7.73;;;4.43;;
4323;SDS011;2175;51.018;6.994;2023-08-06T03:47:26;8.20;;;4.80;;
4323;SDS011;2175;51.018;6.994;2023-08-06T03:49:52;9.90;;;4.73;;
4323;SDS011;2175;51.018;6.994;2023-08-06T03:52:18;6.13;;;4.20;;
4323;SDS011;2175;51.018;6.994;2023-08-06T03:54:43;8.57;;;4.47;;
4323;SDS011;2175;51.018;6.994;2023-08-06T03:57:09;7.70;;;4.50;;
4323;SDS011;2175;51.018;6.994;2023-08-06T03:59:35;5.50;;;4.50;;
4323;SDS011;2175;51.018;6.994;2023-08-06T04:02:01;5.37;;;4.10;;
4323;SDS011;2175;51.018;6.994;2023-08-06T04:04:27;7.70;;;4.90;;
4323;SDS011;2175;51.018;6.994;2023-08-06T04:06:52;9.50;;;4.77;;
4323;SDS011;2175;51.018;6.994;2023-08-06T04:09:18;7.33;;;4.70;;
4323;SDS011;2175;51.018;6.994;2023-08-06T04:11:44;10.33;;;4.77;;
4323;SDS011;2175;51.018;6.994;2023-08-06T04:14:10;14.07;;;5.07;;
4323;SDS011;2175;51.018;6.994;2023-08-06T04:16:35;5.67;;;4.53;;
4323;SDS011;2175;51.018;6.994;2023-08-06T04:19:01;7.70;;;4.53;;
4323;SDS011;2175;51.018;6.994;2023-08-06T04:21:26;7.00;;;4.07;;
4323;SDS011;2175;51.018;6.994;2023-08-06T04:23:52;6.67;;;4.60;;
4323;SDS011;2175;51.018;6.994;2023-08-06T04:26:17;8.07;;;4.70;;
4323;SDS011;2175;51.018;6.994;2023-08-06T04:28:43;5.60;;;4.20;;
4323;SDS011;2175;51.018;6.994;2023-08-06T04:31:09;7.87;;;5.27;;
4323;SDS011;2175;51.018;6.994;2023-08-06T04:33:34;4.93;;;3.60;;
4323;SDS011;2175;51.018;6.994;2023-08-06T04:36:00;6.47;;;4.40;;
4323;SDS011;2175;51.018;6.994;2023-08-06T04:38:26;8.03;;;4.53;;
4323;SDS011;2175;51.018;6.994;2023-08-06T04:40:52;6.70;;;3.93;;
4323;SDS011;2175;51.018;6.994;2023-08-06T04:43:17;6.37;;;4.00;;
4323;SDS011;2175;51.018;6.994;2023-08-06T04:45:47;3.90;;;3.33;;
4323;SDS011;2175;51.018;6.994;2023-08-06T04:48:14;10.13;;;4.07;;
4323;SDS011;2175;51.018;6.994;2023-08-06T04:50:46;6.90;;;3.73;;
4323;SDS011;2175;51.018;6.994;2023-08-06T04:53:14;5.87;;;3.63;;
4323;SDS011;2175;51.018;6.994;2023-08-06T04:55:40;6.43;;;3.70;;
4323;SDS011;2175;51.018;6.994;2023-08-06T04:58:05;10.90;;;3.93;;
4323;SDS011;2175;51.018;6.994;2023-08-06T05:00:31;5.47;;;3.63;;
4323;SDS011;2175;51.018;6.994;2023-08-06T05:02:59;6.10;;;4.03;;
4323;SDS011;2175;51.018;6.994;2023-08-06T05:05:25;8.23;;;4.00;;
4323;SDS011;2175;51.018;6.994;2023-08-06T05:07:51;5.97;;;3.67;;
4323;SDS011;2175;51.018;6.994;2023-08-06T05:10:19;7.27;;;3.73;;
4323;SDS011;2175;51.018;6.994;2023-08-06T05:12:45;7.87;;;4.20;;
4323;SDS011;2175;51.018;6.994;2023-08-06T05:15:10;7.00;;;3.80;;
4323;SDS011;2175;51.018;6.994;2023-08-06T05:17:36;7.17;;;4.30;;
4323;SDS011;2175;51.018;6.994;2023-08-06T05:20:01;5.90;;;3.70;;
4323;SDS011;2175;51.018;6.994;2023-08-06T05:22:27;4.30;;;3.60;;
4323;SDS011;2175;51.018;6.994;2023-08-06T05:24:53;7.63;;;4.30;;
4323;SDS011;2175;51.018;6.994;2023-08-06T05:27:18;11.33;;;4.33;;
4323;SDS011;2175;51.018;6.994;2023-08-06T05:29:44;5.30;;;4.03;;
4323;SDS011;2175;51.018;6.994;2023-08-06T05:32:10;4.03;;;3.43;;
4323;SDS011;2175;51.018;6.994;2023-08-06T05:34:36;6.03;;;3.27;;
4323;SDS011;2175;51.018;6.994;2023-08-06T05:37:02;4.80;;;3.97;;
4323;SDS011;2175;51.018;6.994;2023-08-06T05:39:28;8.87;;;3.90;;
4323;SDS011;2175;51.018;6.994;2023-08-06T05:41:54;7.40;;;4.07;;
4323;SDS011;2175;51.018;6.994;2023-08-06T05:44:20;5.23;;;3.90;;
4323;SDS011;2175;51.018;6.994;2023-08-06T05:46:46;12.20;;;4.10;;
4323;SDS011;2175;51.018;6.994;2023-08-06T05:49:12;6.60;;;3.73;;
4323;SDS011;2175;51.018;6.994;2023-08-06T05:51:38;6.53;;;3.40;;
4323;SDS011;2175;51.018;6.994;2023-08-06T05:54:04;5.80;;;3.13;;
4323;SDS011;2175;51.018;6.994;2023-08-06T05:56:30;14.30;;;4.10;;
4323;SDS011;2175;51.018;6.994;2023-08-06T05:58:55;7.07;;;3.60;;
4323;SDS011;2175;51.018;6.994;2023-08-06T06:01:21;9.07;;;3.90;;
4323;SDS011;2175;51.018;6.994;2023-08-06T06:03:47;6.83;;;4.10;;
4323;SDS011;2175;51.018;6.994;2023-08-06T06:06:12;5.50;;;3.33;;
4323;SDS011;2175;51.018;6.994;2023-08-06T06:08:38;6.50;;;3.50;;
4323;SDS011;2175;51.018;6.994;2023-08-06T06:11:03;5.73;;;3.43;;
4323;SDS011;2175;51.018;6.994;2023-08-06T06:13:29;6.20;;;3.80;;
4323;SDS011;2175;51.018;6.994;2023-08-06T06:15:55;5.80;;;3.50;;
4323;SDS011;2175;51.018;6.994;2023-08-06T06:18:21;7.43;;;4.47;;
4323;SDS011;2175;51.018;6.994;2023-08-06T06:20:47;8.90;;;3.40;;
4323;SDS011;2175;51.018;6.994;2023-08-06T06:23:12;5.93;;;3.50;;
4323;SDS011;2175;51.018;6.994;2023-08-06T06:25:57;13.80;;;3.60;;
4323;SDS011;2175;51.018;6.994;2023-08-06T06:28:22;6.20;;;3.80;;
4323;SDS011;2175;51.018;6.994;2023-08-06T06:30:48;6.13;;;3.40;;
4323;SDS011;2175;51.018;6.994;2023-08-06T06:33:13;4.93;;;3.80;;
4323;SDS011;2175;51.018;6.994;2023-08-06T06:35:39;4.63;;;3.63;;
4323;SDS011;2175;51.018;6.994;2023-08-06T06:38:05;7.33;;;3.50;;
4323;SDS011;2175;51.018;6.994;2023-08-06T06:40:30;6.03;;;3.47;;
4323;SDS011;2175;51.018;6.994;2023-08-06T06:42:56;4.90;;;3.90;;
4323;SDS011;2175;51.018;6.994;2023-08-06T06:45:21;5.60;;;3.27;;
4323;SDS011;2175;51.018;6.994;2023-08-06T06:47:47;6.43;;;3.70;;
4323;SDS011;2175;51.018;6.994;2023-08-06T06:50:12;5.30;;;3.67;;
4323;SDS011;2175;51.018;6.994;2023-08-06T06:52:38;6.73;;;3.73;;
4323;SDS011;2175;51.018;6.994;2023-08-06T06:55:04;5.03;;;3.63;;
4323;SDS011;2175;51.018;6.994;2023-08-06T06:57:29;7.40;;;4.00;;
4323;SDS011;2175;51.018;6.994;2023-08-06T06:59:55;6.60;;;3.67;;
4323;SDS011;2175;51.018;6.994;2023-08-06T07:02:21;4.67;;;3.60;;
4323;SDS011;2175;51.018;6.994;2023-08-06T07:04:46;6.97;;;3.63;;
4323;SDS011;2175;51.018;6.994;2023-08-06T07:07:12;6.63;;;3.63;;
4323;SDS011;2175;51.018;6.994;2023-08-06T07:09:37;5.70;;;3.63;;
4323;SDS011;2175;51.018;6.994;2023-08-06T07:12:03;8.13;;;3.70;;
4323;SDS011;2175;51.018;6.994;2023-08-06T07:14:29;10.73;;;3.97;;
4323;SDS011;2175;51.018;6.994;2023-08-06T07:16:55;5.70;;;3.60;;
4323;SDS011;2175;51.018;6.994;2023-08-06T07:19:20;6.10;;;3.77;;
4323;SDS011;2175;51.018;6.994;2023-08-06T07:21:46;7.47;;;3.60;;
4323;SDS011;2175;51.018;6.994;2023-08-06T07:24:11;5.87;;;3.30;;
4323;SDS011;2175;51.018;6.994;2023-08-06T07:26:37;4.07;;;3.50;;
4323;SDS011;2175;51.018;6.994;2023-08-06T07:29:03;4.37;;;3.67;;
4323;SDS011;2175;51.018;6.994;2023-08-06T07:31:28;4.07;;;3.40;;
4323;SDS011;2175;51.018;6.994;2023-08-06T07:33:54;5.07;;;3.97;;
4323;SDS011;2175;51.018;6.994;2023-08-06T07:36:20;5.40;;;4.13;;
4323;SDS011;2175;51.018;6.994;2023-08-06T07:38:45;9.50;;;3.37;;
4323;SDS011;2175;51.018;6.994;2023-08-06T07:41:11;6.83;;;2.63;;
4323;SDS011;2175;51.018;6.994;2023-08-06T07:43:36;5.40;;;2.67;;
4323;SDS011;2175;51.018;6.994;2023-08-06T07:46:02;3.90;;;2.93;;
4323;SDS011;2175;51.018;6.994;2023-08-06T07:48:28;2.80;;;1.87;;
4323;SDS011;2175;51.018;6.994;2023-08-06T07:50:54;7.00;;;2.43;;
4323;SDS011;2175;51.018;6.994;2023-08-06T07:53:24;4.40;;;2.30;;
4323;SDS011;2175;51.018;6.994;2023-08-06T07:55:52;3.07;;;2.50;;
4323;SDS011;2175;51.018;6.994;2023-08-06T07:58:19;2.87;;;2.27;;
4323;SDS011;2175;51.018;6.994;2023-08-06T08:00:45;3.37;;;2.50;;
4323;SDS011;2175;51.018;6.994;2023-08-06T08:03:11;2.80;;;1.70;;
4323;SDS011;2175;51.018;6.994;2023-08-06T08:05:38;2.60;;;2.03;;
4323;SDS011;2175;51.018;6.994;2023-08-06T08:08:04;2.00;;;1.80;;
4323;SDS011;2175;51.018;6.994;2023-08-06T08:10:30;1.93;;;1.73;;
4323;SDS011;2175;51.018;6.994;2023-08-06T08:12:56;5.83;;;1.97;;
4323;SDS011;2175;51.018;6.994;2023-08-06T08:15:22;2.70;;;1.70;;
4323;SDS011;2175;51.018;6.994;2023-08-06T08:17:48;1.80;;;1.50;;
4323;SDS011;2175;51.018;6.994;2023-08-06T08:20:14;2.10;;;1.73;;
4323;SDS011;2175;51.018;6.994;2023-08-06T08:22:41;2.63;;;1.90;;
4323;SDS011;2175;51.018;6.994;2023-08-06T08:25:06;3.43;;;1.47;;
4323;SDS011;2175;51.018;6.994;2023-08-06T08:27:32;8.70;;;1.77;;
4323;SDS011;2175;51.018;6.994;2023-08-06T08:29:58;2.23;;;1.77;;
4323;SDS011;2175;51.018;6.994;2023-08-06T08:32:23;3.43;;;2.07;;
4323;SDS011;2175;51.018;6.994;2023-08-06T08:34:49;2.10;;;1.70;;
4323;SDS011;2175;51.018;6.994;2023-08-06T08:37:14;2.17;;;1.90;;
4323;SDS011;2175;51.018;6.994;2023-08-06T08:39:40;2.10;;;1.80;;
4323;SDS011;2175;51.018;6.994;2023-08-06T08:42:06;3.10;;;1.97;;
4323;SDS011;2175;51.018;6.994;2023-08-06T08:44:32;2.20;;;1.90;;
4323;SDS011;2175;51.018;6.994;2023-08-06T08:46:59;2.50;;;2.17;;
4323;SDS011;2175;51.018;6.994;2023-08-06T08:49:24;2.67;;;2.47;;
4323;SDS011;2175;51.018;6.994;2023-08-06T08:51:53;3.07;;;2.77;;
4323;SDS011;2175;51.018;6.994;2023-08-06T08:54:20;3.50;;;2.60;;
4323;SDS011;2175;51.018;6.994;2023-08-06T08:56:49;4.33;;;2.90;;
4323;SDS011;2175;51.018;6.994;2023-08-06T08:59:14;3.50;;;3.20;;
4323;SDS011;2175;51.018;6.994;2023-08-06T09:01:40;3.73;;;2.70;;
4323;SDS011;2175;51.018;6.994;2023-08-06T09:04:07;4.80;;;3.00;;
4323;SDS011;2175;51.018;6.994;2023-08-06T09:06:36;3.07;;;2.80;;
4323;SDS011;2175;51.018;6.994;2023-08-06T09:09:07;3.47;;;3.00;;
4323;SDS011;2175;51.018;6.994;2023-08-06T09:11:39;4.07;;;3.40;;
4323;SDS011;2175;51.018;6.994;2023-08-06T09:14:08;6.73;;;3.60;;
4323;SDS011;2175;51.018;6.994;2023-08-06T09:16:37;4.67;;;4.10;;
4323;SDS011;2175;51.018;6.994;2023-08-06T09:19:13;5.43;;;4.30;;
4323;SDS011;2175;51.018;6.994;2023-08-06T09:21:42;7.13;;;4.70;;
4323;SDS011;2175;51.018;6.994;2023-08-06T09:24:09;5.27;;;4.70;;
4323;SDS011;2175;51.018;6.994;2023-08-06T09:26:42;7.00;;;4.80;;
4323;SDS011;2175;51.018;6.994;2023-08-06T09:29:09;6.20;;;5.60;;
4323;SDS011;2175;51.018;6.994;2023-08-06T09:31:49;7.70;;;6.73;;
4323;SDS011;2175;51.018;6.994;2023-08-06T09:34:22;10.80;;;8.90;;
4323;SDS011;2175;51.018;6.994;2023-08-06T09:36:49;8.87;;;6.60;;
4323;SDS011;2175;51.018;6.994;2023-08-06T09:39:16;6.80;;;6.03;;
4323;SDS011;2175;51.018;6.994;2023-08-06T09:41:43;7.63;;;5.90;;
4323;SDS011;2175;51.018;6.994;2023-08-06T09:44:17;9.07;;;6.70;;
4323;SDS011;2175;51.018;6.994;2023-08-06T09:46:48;7.27;;;6.30;;
4323;SDS011;2175;51.018;6.994;2023-08-06T09:49:15;11.40;;;8.33;;
4323;SDS011;2175;51.018;6.994;2023-08-06T09:51:41;11.40;;;8.40;;
4323;SDS011;2175;51.018;6.994;2023-08-06T09:54:07;13.97;;;9.67;;
4323;SDS011;2175;51.018;6.994;2023-08-06T09:56:37;10.77;;;6.83;;
4323;SDS011;2175;51.018;6.994;2023-08-06T09:59:06;10.40;;;6.87;;
4323;SDS011;2175;51.018;6.994;2023-08-06T10:01:32;10.10;;;7.60;;
4323;SDS011;2175;51.018;6.994;2023-08-06T10:03:59;9.30;;;7.90;;
4323;SDS011;2175;51.018;6.994;2023-08-06T10:06:26;8.97;;;8.03;;
4323;SDS011;2175;51.018;6.994;2023-08-06T10:08:53;7.93;;;6.67;;
4323;SDS011;2175;51.018;6.994;2023-08-06T10:11:20;5.67;;;4.33;;
4323;SDS011;2175;51.018;6.994;2023-08-06T10:13:48;3.33;;;2.90;;
4323;SDS011;2175;51.018;6.994;2023-08-06T10:16:17;2.97;;;2.67;;
4323;SDS011;2175;51.018;6.994;2023-08-06T10:18:44;4.73;;;2.30;;
4323;SDS011;2175;51.018;6.994;2023-08-06T10:21:10;4.20;;;2.50;;
4323;SDS011;2175;51.018;6.994;2023-08-06T10:23:36;6.60;;;3.17;;
4323;SDS011;2175;51.018;6.994;2023-08-06T10:26:03;7.50;;;4.87;;
4323;SDS011;2175;51.018;6.994;2023-08-06T10:28:38;3.00;;;1.77;;
4323;SDS011;2175;51.018;6.994;2023-08-06T10:31:05;3.40;;;2.00;;
4323;SDS011;2175;51.018;6.994;2023-08-06T10:33:44;5.33;;;1.50;;
4323;SDS011;2175;51.018;6.994;2023-08-06T10:36:12;5.00;;;2.30;;
4323;SDS011;2175;51.018;6.994;2023-08-06T10:38:46;2.60;;;1.77;;
4323;SDS011;2175;51.018;6.994;2023-08-06T10:41:28;2.57;;;1.70;;
4323;SDS011;2175;51.018;6.994;2023-08-06T10:44:07;3.43;;;1.73;;
4323;SDS011;2175;51.018;6.994;2023-08-06T10:46:34;4.47;;;1.80;;
4323;SDS011;2175;51.018;6.994;2023-08-06T10:49:01;5.53;;;2.33;;
4323;SDS011;2175;51.018;6.994;2023-08-06T10:51:37;4.83;;;2.47;;
4323;SDS011;2175;51.018;6.994;2023-08-06T10:54:03;8.43;;;2.80;;
4323;SDS011;2175;51.018;6.994;2023-08-06T10:56:30;3.93;;;2.60;;
4323;SDS011;2175;51.018;6.994;2023-08-06T10:58:56;5.90;;;3.57;;
4323;SDS011;2175;51.018;6.994;2023-08-06T11:01:23;3.93;;;3.30;;
4323;SDS011;2175;51.018;6.994;2023-08-06T11:03:49;7.20;;;4.27;;
4323;SDS011;2175;51.018;6.994;2023-08-06T11:06:22;6.00;;;3.60;;
4323;SDS011;2175;51.018;6.994;2023-08-06T11:08:49;4.57;;;2.90;;
4323;SDS011;2175;51.018;6.994;2023-08-06T11:11:16;5.30;;;2.93;;
4323;SDS011;2175;51.018;6.994;2023-08-06T11:13:43;5.20;;;2.50;;
4323;SDS011;2175;51.018;6.994;2023-08-06T11:16:11;6.83;;;2.60;;
4323;SDS011;2175;51.018;6.994;2023-08-06T11:18:38;5.27;;;2.80;;
4323;SDS011;2175;51.018;6.994;2023-08-06T11:21:05;5.10;;;3.00;;
4323;SDS011;2175;51.018;6.994;2023-08-06T11:23:33;7.00;;;5.30;;
4323;SDS011;2175;51.018;6.994;2023-08-06T11:26:00;5.57;;;3.97;;
4323;SDS011;2175;51.018;6.994;2023-08-06T11:28:26;7.00;;;5.27;;
4323;SDS011;2175;51.018;6.994;2023-08-06T11:30:52;12.63;;;4.20;;
4323;SDS011;2175;51.018;6.994;2023-08-06T11:33:23;6.33;;;4.10;;
4323;SDS011;2175;51.018;6.994;2023-08-06T11:35:53;10.80;;;4.70;;
4323;SDS011;2175;51.018;6.994;2023-08-06T11:38:21;8.93;;;4.30;;
4323;SDS011;2175;51.018;6.994;2023-08-06T11:40:50;8.00;;;4.70;;
4323;SDS011;2175;51.018;6.994;2023-08-06T11:43:17;7.13;;;4.50;;
4323;SDS011;2175;51.018;6.994;2023-08-06T11:45:44;9.83;;;4.13;;
4323;SDS011;2175;51.018;6.994;2023-08-06T11:48:10;5.40;;;3.77;;
4323;SDS011;2175;51.018;6.994;2023-08-06T11:50:36;12.43;;;4.60;;
4323;SDS011;2175;51.018;6.994;2023-08-06T11:53:03;6.53;;;4.13;;
4323;SDS011;2175;51.018;6.994;2023-08-06T11:55:29;7.60;;;3.87;;
4323;SDS011;2175;51.018;6.994;2023-08-06T11:57:56;7.63;;;4.10;;
4323;SDS011;2175;51.018;6.994;2023-08-06T12:00:23;11.03;;;3.80;;
4323;SDS011;2175;51.018;6.994;2023-08-06T12:02:52;10.10;;;4.50;;
4323;SDS011;2175;51.018;6.994;2023-08-06T12:05:20;9.60;;;4.20;;
4323;SDS011;2175;51.018;6.994;2023-08-06T12:07:51;8.30;;;4.50;;
4323;SDS011;2175;51.018;6.994;2023-08-06T12:10:21;9.73;;;4.50;;
4323;SDS011;2175;51.018;6.994;2023-08-06T12:12:48;8.50;;;4.07;;
4323;SDS011;2175;51.018;6.994;2023-08-06T12:15:15;8.80;;;3.53;;
4323;SDS011;2175;51.018;6.994;2023-08-06T12:17:41;9.40;;;4.90;;
4323;SDS011;2175;51.018;6.994;2023-08-06T12:20:07;16.77;;;4.83;;
4323;SDS011;2175;51.018;6.994;2023-08-06T12:22:36;6.90;;;3.90;;
4323;SDS011;2175;51.018;6.994;2023-08-06T12:25:21;7.03;;;4.40;;
4323;SDS011;2175;51.018;6.994;2023-08-06T12:27:48;6.13;;;3.50;;
4323;SDS011;2175;51.018;6.994;2023-08-06T12:30:15;10.90;;;4.70;;
4323;SDS011;2175;51.018;6.994;2023-08-06T12:32:40;5.93;;;4.00;;
4323;SDS011;2175;51.018;6.994;2023-08-06T12:35:06;9.43;;;4.20;;
4323;SDS011;2175;51.018;6.994;2023-08-06T12:37:33;10.63;;;4.30;;
4323;SDS011;2175;51.018;6.994;2023-08-06T12:39:58;6.57;;;3.50;;
4323;SDS011;2175;51.018;6.994;2023-08-06T12:42:24;8.27;;;4.57;;
4323;SDS011;2175;51.018;6.994;2023-08-06T12:44:50;6.10;;;4.10;;
4323;SDS011;2175;51.018;6.994;2023-08-06T12:47:17;6.93;;;4.30;;
4323;SDS011;2175;51.018;6.994;2023-08-06T12:49:43;9.17;;;4.17;;
4323;SDS011;2175;51.018;6.994;2023-08-06T12:52:08;7.23;;;4.20;;
4323;SDS011;2175;51.018;6.994;2023-08-06T12:54:35;9.13;;;4.00;;
4323;SDS011;2175;51.018;6.994;2023-08-06T12:57:03;10.00;;;3.40;;
4323;SDS011;2175;51.018;6.994;2023-08-06T12:59:29;5.57;;;3.40;;
4323;SDS011;2175;51.018;6.994;2023-08-06T13:01:58;10.40;;;3.90;;
4323;SDS011;2175;51.018;6.994;2023-08-06T13:04:24;5.57;;;3.57;;
4323;SDS011;2175;51.018;6.994;2023-08-06T13:06:50;9.43;;;4.13;;
4323;SDS011;2175;51.018;6.994;2023-08-06T13:09:17;7.40;;;4.30;;
4323;SDS011;2175;51.018;6.994;2023-08-06T13:11:44;12.10;;;4.07;;
4323;SDS011;2175;51.018;6.994;2023-08-06T13:14:12;5.40;;;3.53;;
4323;SDS011;2175;51.018;6.994;2023-08-06T13:16:40;7.83;;;3.60;;
4323;SDS011;2175;51.018;6.994;2023-08-06T13:19:07;8.13;;;3.40;;
4323;SDS011;2175;51.018;6.994;2023-08-06T13:21:35;7.03;;;3.93;;
4323;SDS011;2175;51.018;6.994;2023-08-06T13:24:20;7.93;;;3.73;;
4323;SDS011;2175;51.018;6.994;2023-08-06T13:26:45;8.70;;;3.90;;
4323;SDS011;2175;51.018;6.994;2023-08-06T13:29:11;5.20;;;3.70;;
4323;SDS011;2175;51.018;6.994;2023-08-06T13:31:37;5.97;;;3.43;;
4323;SDS011;2175;51.018;6.994;2023-08-06T13:34:03;8.47;;;3.53;;
4323;SDS011;2175;51.018;6.994;2023-08-06T13:36:29;7.50;;;3.60;;
4323;SDS011;2175;51.018;6.994;2023-08-06T13:38:55;9.90;;;5.30;;
4323;SDS011;2175;51.018;6.994;2023-08-06T13:41:21;10.23;;;4.27;;
4323;SDS011;2175;51.018;6.994;2023-08-06T13:43:49;8.23;;;5.00;;
4323;SDS011;2175;51.018;6.994;2023-08-06T13:46:18;7.60;;;4.53;;
4323;SDS011;2175;51.018;6.994;2023-08-06T13:48:45;7.87;;;4.50;;
4323;SDS011;2175;51.018;6.994;2023-08-06T13:51:12;11.00;;;5.20;;
4323;SDS011;2175;51.018;6.994;2023-08-06T13:53:39;8.20;;;4.40;;
4323;SDS011;2175;51.018;6.994;2023-08-06T13:56:06;6.73;;;4.40;;
4323;SDS011;2175;51.018;6.994;2023-08-06T13:58:32;8.10;;;6.30;;
4323;SDS011;2175;51.018;6.994;2023-08-06T14:01:00;13.10;;;5.83;;
4323;SDS011;2175;51.018;6.994;2023-08-06T14:03:26;7.37;;;5.60;;
4323;SDS011;2175;51.018;6.994;2023-08-06T14:05:52;8.97;;;4.97;;
4323;SDS011;2175;51.018;6.994;2023-08-06T14:08:20;16.07;;;5.80;;
4323;SDS011;2175;51.018;6.994;2023-08-06T14:10:49;15.57;;;5.70;;
4323;SDS011;2175;51.018;6.994;2023-08-06T14:13:15;10.67;;;5.67;;
4323;SDS011;2175;51.018;6.994;2023-08-06T14:15:40;10.43;;;4.93;;
4323;SDS011;2175;51.018;6.994;2023-08-06T14:18:06;12.33;;;5.60;;
4323;SDS011;2175;51.018;6.994;2023-08-06T14:20:35;10.20;;;5.67;;
4323;SDS011;2175;51.018;6.994;2023-08-06T14:23:01;15.63;;;7.30;;
4323;SDS011;2175;51.018;6.994;2023-08-06T14:25:26;9.80;;;6.07;;
4323;SDS011;2175;51.018;6.994;2023-08-06T14:27:52;14.70;;;5.83;;
4323;SDS011;2175;51.018;6.994;2023-08-06T14:30:18;10.63;;;5.73;;
4323;SDS011;2175;51.018;6.994;2023-08-06T14:32:43;11.30;;;5.43;;
4323;SDS011;2175;51.018;6.994;2023-08-06T14:35:09;11.90;;;6.43;;
4323;SDS011;2175;51.018;6.994;2023-08-06T14:37:34;11.23;;;6.10;;
4323;SDS011;2175;51.018;6.994;2023-08-06T14:40:02;10.33;;;5.30;;
4323;SDS011;2175;51.018;6.994;2023-08-06T14:42:28;7.90;;;3.90;;
4323;SDS011;2175;51.018;6.994;2023-08-06T14:44:54;11.70;;;3.30;;
4323;SDS011;2175;51.018;6.994;2023-08-06T14:50:00;7.57;;;3.00;;
4323;SDS011;2175;51.018;6.994;2023-08-06T14:52:34;7.70;;;3.13;;
4323;SDS011;2175;51.018;6.994;2023-08-06T14:58:11;9.90;;;3.53;;
4323;SDS011;2175;51.018;6.994;2023-08-06T15:00:42;10.17;;;3.23;;
4323;SDS011;2175;51.018;6.994;2023-08-06T15:03:21;5.20;;;2.60;;
4323;SDS011;2175;51.018;6.994;2023-08-06T15:05:48;8.10;;;3.43;;
4323;SDS011;2175;51.018;6.994;2023-08-06T15:08:15;9.47;;;3.63;;
4323;SDS011;2175;51.018;6.994;2023-08-06T15:10:49;8.27;;;3.30;;
4323;SDS011;2175;51.018;6.994;2023-08-06T15:13:16;10.03;;;3.80;;
4323;SDS011;2175;51.018;6.994;2023-08-06T15:15:47;7.97;;;3.60;;
4323;SDS011;2175;51.018;6.994;2023-08-06T15:18:38;11.17;;;4.10;;
4323;SDS011;2175;51.018;6.994;2023-08-06T15:21:12;8.13;;;3.87;;
4323;SDS011;2175;51.018;6.994;2023-08-06T15:23:39;9.10;;;3.50;;
4323;SDS011;2175;51.018;6.994;2023-08-06T15:26:24;9.67;;;3.90;;